Bar Harbor, ME

3:30 PM EDT on March 24, 2017 (GMT -0400)
College of the Atlantic | | Change Station

Elev 52 ft 44.39 °N, 68.22 °W | Updated 56 seconds ago

Overcast
Overcast
32.9 °F
Feels Like 33 °F
N
2.3
Wind Variable Wind from SSE
Gusts 6.0 mph

Today
High -- | Low -- °F
--% Chance of Precip.
Yesterday
High -- | Low -- °F
Precip. -- in
Pressure 30.24 in
Visibility 10.0 miles
Clouds Mostly Cloudy 1100 ft
Overcast 2000 ft
Windchill 33 °F
Dew Point 31 °F
Humidity 87%
Rainfall 0.04 in
Snow Depth Not available.
6:28 AM 6:50 PM
Waning Crescent, 13% visible
SPECI KBHB 241922Z AUTO 19015KT 10SM UP BKN011 OVC020 M01/M02 A3024 RMK AO2 P0000 FZRANO
Pressure 30.24 in
Visibility 10.0 miles
Clouds Mostly Cloudy 1100 ft
Overcast 2000 ft
Windchill 33 °F
Dew Point 31 °F
Humidity 87%
Rainfall 0.04 in
Snow Depth Not available.
6:28 AM 6:50 PM
Waning Crescent, 13% visible
SPECI KBHB 241922Z AUTO 19015KT 10SM UP BKN011 OVC020 M01/M02 A3024 RMK AO2 P0000 FZRANO

Get Severe Weather Alerts

Thanks for signing up!

Be on the lookout for a verification email in your inbox.

You'll start receiving the daily forecast at 8 AM.

×

10-Day Weather Forecast

Almanac

Astronomy

Mar. 24, 2017 Rise Set
Actual Time
Civil Twilight
Nautical Twilight
Astronomical Twilight
Moon
Length of Visible Light
Length of Day
Tomorrow will be .
, % of the Moon is Illuminated

Today's Extremes

State Highs State Lows

Community

WunderPhotos

Upload Photos

1,962,540 photos uploaded!

WunderBlog® & News

Nearby

Air Quality

  Air Quality AQ Index Pollutant
Not available.

Snow Depth

Station Depth Elevation

Earthquake Activity

City Distance Mag. Time & Date
Minimum magnitude displayed is 2.5.

Earthquake Activity

City Distance Mag. Time & Date
Minimum magnitude displayed is 2.5.

Coastal Water Temperatures

Place Temperature

Stations

Nearby Weather Stations

Station Location Temp. Windchill Dew Point Humidity Wind Precip. Elev Updated Type
                   

Watches & Warnings

There are currently no watches in effect.